Time;durP1;ratioP1;P1;durP2;ratioP2;P2;SDS_P1;SDS_P2;PMS_P1;PMS_P2;Temp;Humidity;BMP_temperature;BMP_pressure;BME280_temperature;BME280_humidity;BME280_pressure;Samples;Min_cycle;Max_cycle;Signal;HPM_P1;HPM_P2
2023/03/27 00:02:12;;;;;;;;;;;;;;;9.22;63.47;102087.09;4953945;28;19934;-86
2023/03/27 00:04:41;;;;;;;;;;;;;;;9.00;65.97;102080.72;4954018;28;20588;-86
2023/03/27 00:07:09;;;;;;;;;;;;;;;8.93;69.84;102078.59;4954528;28;20384;-85
2023/03/27 00:09:39;;;;;;;;;;;;;;;8.77;69.12;102083.63;4950241;28;19937;-84
2023/03/27 00:12:07;;;;;;;;;;;;;;;8.64;72.32;102089.78;4949412;28;20385;-83
2023/03/27 00:14:35;;;;;;;;;;;;;;;8.59;74.38;102094.69;4949024;28;19930;-83
2023/03/27 00:17:03;;;;;;;;;;;;;;;8.53;74.81;102102.06;4953755;28;19927;-84
2023/03/27 00:19:32;;;;;;;;;;;;;;;8.48;74.60;102108.63;4951342;28;19926;-85
2023/03/27 00:22:00;;;;;;;;;;;;;;;8.43;75.17;102110.06;4951331;28;20373;-83
2023/03/27 00:24:28;;;;;;;;;;;;;;;8.42;76.38;102103.09;4948721;28;20011;-82
2023/03/27 00:26:57;;;;;;;;;;;;;;;8.41;76.51;102114.22;4948871;28;20006;-84
2023/03/27 00:29:26;;;;;;;;;;;;;;;8.41;77.68;102110.75;4949956;28;19933;-83
2023/03/27 00:31:55;;;;;;;;;;;;;;;8.38;79.09;102116.56;4950162;28;19922;-82
2023/03/27 00:34:23;;;;;;;;;;;;;;;8.38;81.06;102121.72;4954703;28;19930;-82
2023/03/27 00:36:52;;;;;;;;;;;;;;;8.39;83.01;102119.25;4951348;28;20006;-80
2023/03/27 00:39:20;;;;;;;;;;;;;;;8.38;83.80;102126.88;4954656;28;20561;-78
2023/03/27 00:41:48;;;;;;;;;;;;;;;8.28;82.75;102132.31;4949338;28;19930;-79
2023/03/27 00:44:26;;;;;;;;;;;;;;;8.19;81.80;102130.03;4948728;28;19932;-80
2023/03/27 00:46:55;;;;;;;;;;;;;;;8.15;82.68;102133.22;4950389;28;19930;-78
2023/03/27 00:49:24;;;;;;;;;;;;;;;8.11;83.88;102129.59;4948937;28;19929;-77
2023/03/27 00:51:53;;;;;;;;;;;;;;;8.07;84.28;102132.78;4948157;28;19923;-78
2023/03/27 00:54:25;;;;;;;;;;;;;;;7.97;85.25;102127.81;4949031;28;20013;-81
2023/03/27 00:56:54;;;;;;;;;;;;;;;7.80;86.10;102119.06;4948832;28;20025;-80
2023/03/27 00:59:23;;;;;;;;;;;;;;;7.76;87.53;102119.66;4949331;28;19930;-81
2023/03/27 01:01:53;;;;;;;;;;;;;;;7.80;88.17;102118.19;4949767;28;19922;-81
2023/03/27 01:04:22;;;;;;;;;;;;;;;7.72;88.31;102118.59;4953157;28;20381;-81
2023/03/27 01:06:52;;;;;;;;;;;;;;;7.68;88.30;102114.03;4951856;28;19930;-81
2023/03/27 01:09:20;;;;;;;;;;;;;;;7.68;88.36;102103.72;4949960;28;20017;-80
2023/03/27 01:11:53;;;;;;;;;;;;;;;7.60;89.72;102102.34;4949259;28;19989;-81
2023/03/27 01:14:27;;;;;;;;;;;;;;;7.51;87.94;102105.25;4951660;28;20424;-81
2023/03/27 01:17:05;;;;;;;;;;;;;;;7.52;89.89;102098.41;4954790;28;19941;-81
2023/03/27 01:19:50;;;;;;;;;;;;;;;7.54;87.36;102097.72;4948090;28;19930;-81
2023/03/27 01:22:36;;;;;;;;;;;;;;;7.46;87.76;102085.13;4951044;28;20013;-82
2023/03/27 01:25:16;;;;;;;;;;;;;;;7.50;89.38;102081.97;4950537;28;19922;-81
2023/03/27 01:28:02;;;;;;;;;;;;;;;7.54;88.78;102078.78;4948918;28;19926;-82
2023/03/27 01:30:31;;;;;;;;;;;;;;;7.59;89.25;102079.97;4945234;28;19922;-83
2023/03/27 01:33:17;;;;;;;;;;;;;;;7.64;86.82;102078.56;4950734;28;19973;-83
2023/03/27 01:36:00;;;;;;;;;;;;;;;7.63;84.74;102081.03;4948585;28;19986;-82
2023/03/27 01:38:45;;;;;;;;;;;;;;;7.55;86.26;102068.56;4948857;28;19948;-82
2023/03/27 01:41:17;;;;;;;;;;;;;;;7.53;86.52;102072.72;4905623;28;19926;-82
2023/03/27 01:43:47;;;;;;;;;;;;;;;7.43;88.51;102074.66;4962428;28;19966;-79
2023/03/27 01:46:18;;;;;;;;;;;;;;;7.29;88.26;102071.19;4965935;28;19938;-79
2023/03/27 01:48:49;;;;;;;;;;;;;;;7.17;89.67;102071.31;4960573;28;19931;-82
2023/03/27 01:51:21;;;;;;;;;;;;;;;7.04;90.37;102058.44;4963905;28;19922;-85
2023/03/27 01:53:52;;;;;;;;;;;;;;;7.10;91.39;102059.72;4965528;28;20654;-82
2023/03/27 01:56:25;;;;;;;;;;;;;;;7.11;90.77;102065.75;4968140;28;19972;-83
2023/03/27 01:58:55;;;;;;;;;;;;;;;7.13;91.46;102069.31;4963353;28;19926;-84
2023/03/27 02:01:26;;;;;;;;;;;;;;;7.15;91.93;102067.75;4967575;28;19930;-84
2023/03/27 02:03:56;;;;;;;;;;;;;;;7.13;91.19;102048.72;4964482;28;19925;-84
2023/03/27 02:06:27;;;;;;;;;;;;;;;7.23;91.08;102069.09;4963090;28;20524;-84
2023/03/27 02:08:59;;;;;;;;;;;;;;;7.25;90.68;102059.81;4965203;28;19935;-84
2023/03/27 02:11:31;;;;;;;;;;;;;;;7.24;90.20;102073.47;4969476;28;19929;-84
2023/03/27 02:14:08;;;;;;;;;;;;;;;7.22;88.20;102067.34;4970642;28;19929;-83
2023/03/27 02:16:41;;;;;;;;;;;;;;;7.12;88.08;102068.44;4967745;28;19969;-84
2023/03/27 02:19:12;;;;;;;;;;;;;;;7.07;88.50;102063.78;4966588;28;19985;-83
2023/03/27 02:21:40;;;;;;;;;;;;;;;7.06;88.77;102064.56;4966388;28;20010;-84
2023/03/27 02:24:08;;;;;;;;;;;;;;;7.03;89.49;102061.78;4972098;28;20518;-84
2023/03/27 02:26:45;;;;;;;;;;;;;;;7.00;89.22;102066.75;4968775;28;19930;-84
2023/03/27 02:29:30;;;;;;;;;;;;;;;6.99;91.14;102064.97;4971755;28;20372;-84
2023/03/27 02:32:04;;;;;;;;;;;;;;;6.99;90.67;102064.97;4972452;28;19925;-86
2023/03/27 02:34:48;;;;;;;;;;;;;;;6.98;91.16;102065.75;4966385;28;19926;-86
2023/03/27 02:37:20;;;;;;;;;;;;;;;6.94;89.60;102069.81;4973640;28;20018;-84
2023/03/27 02:39:57;;;;;;;;;;;;;;;6.94;88.86;102064.69;4969179;28;20009;-84
2023/03/27 02:42:31;;;;;;;;;;;;;;;6.92;87.00;102064.56;4969646;28;19981;-85
2023/03/27 02:45:03;;;;;;;;;;;;;;;6.91;87.42;102067.03;4970519;28;19929;-85
2023/03/27 02:47:35;;;;;;;;;;;;;;;6.87;87.92;102071.09;4969596;28;19938;-85
2023/03/27 02:50:05;;;;;;;;;;;;;;;6.83;88.94;102068.22;4968362;28;19953;-85
2023/03/27 02:52:36;;;;;;;;;;;;;;;6.78;89.02;102070.50;4968721;28;19933;-85
2023/03/27 02:55:06;;;;;;;;;;;;;;;6.73;89.75;102064.13;4967186;28;19938;-85
2023/03/27 02:57:38;;;;;;;;;;;;;;;6.69;90.44;102068.22;4973134;28;20041;-86
2023/03/27 03:00:24;;;;;;;;;;;;;;;6.66;90.59;102069.66;4975406;28;19922;-85
2023/03/27 03:02:55;;;;;;;;;;;;;;;6.61;91.43;102071.06;4983491;28;19922;-85
2023/03/27 03:05:24;;;;;;;;;;;;;;;6.59;91.72;102072.63;4978555;28;19922;-85
2023/03/27 03:07:53;;;;;;;;;;;;;;;6.57;92.10;102077.66;4981426;28;19918;-85
2023/03/27 03:10:23;;;;;;;;;;;;;;;6.55;92.61;102071.53;4976523;28;19926;-85
2023/03/27 03:12:53;;;;;;;;;;;;;;;6.55;93.13;102078.34;4987058;28;19973;-86
2023/03/27 03:15:21;;;;;;;;;;;;;;;6.53;93.94;102074.78;4990806;28;19925;-85
2023/03/27 03:17:49;;;;;;;;;;;;;;;6.52;94.03;102075.56;4984388;28;20331;-86
2023/03/27 03:20:17;;;;;;;;;;;;;;;6.48;94.34;102080.53;4982268;28;20492;-86
2023/03/27 03:22:45;;;;;;;;;;;;;;;6.44;93.78;102075.97;4990662;28;19928;-85
2023/03/27 03:25:13;;;;;;;;;;;;;;;6.42;93.00;102079.22;4986414;28;19926;-85
2023/03/27 03:27:42;;;;;;;;;;;;;;;6.38;93.55;102072.09;4989456;28;19930;-86
2023/03/27 03:30:13;;;;;;;;;;;;;;;6.24;93.68;102058.31;4994278;28;19928;-87
2023/03/27 03:32:42;;;;;;;;;;;;;;;6.29;93.15;102073.22;4991383;28;19925;-86
2023/03/27 03:35:12;;;;;;;;;;;;;;;6.25;93.10;102078.97;4996004;28;19929;-86
2023/03/27 03:37:40;;;;;;;;;;;;;;;6.19;93.35;102072.53;4992641;28;19922;-85
2023/03/27 03:40:12;;;;;;;;;;;;;;;6.14;93.96;102076.44;4993304;28;19922;-85
2023/03/27 03:42:45;;;;;;;;;;;;;;;6.09;94.29;102078.69;4988946;28;19918;-85
2023/03/27 03:45:14;;;;;;;;;;;;;;;6.07;94.29;102080.28;4978063;28;19973;-85
2023/03/27 03:47:46;;;;;;;;;;;;;;;6.01;94.53;102078.16;4979126;28;19949;-86
2023/03/27 03:50:17;;;;;;;;;;;;;;;5.97;94.56;102072.72;4981856;28;20044;-87
2023/03/27 03:52:46;;;;;;;;;;;;;;;5.94;95.54;102082.75;4986497;28;19917;-86
2023/03/27 03:55:14;;;;;;;;;;;;;;;5.89;94.81;102085.00;4968697;29;19993;-85
2023/03/27 03:57:45;;;;;;;;;;;;;;;5.82;94.97;102088.81;4975962;28;19926;-85
2023/03/27 04:00:17;;;;;;;;;;;;;;;5.80;95.12;102084.38;4964749;28;19946;-85
2023/03/27 04:02:45;;;;;;;;;;;;;;;5.76;94.65;102092.63;4972546;28;19934;-85
2023/03/27 04:05:13;;;;;;;;;;;;;;;5.73;95.18;102093.31;4978885;28;19949;-84
2023/03/27 04:07:44;;;;;;;;;;;;;;;5.69;95.03;102090.41;4979897;28;19977;-84
2023/03/27 04:10:13;;;;;;;;;;;;;;;5.62;96.02;102095.13;4973741;28;19922;-84
2023/03/27 04:12:40;;;;;;;;;;;;;;;5.56;96.10;102092.09;4975330;29;19922;-85
2023/03/27 04:15:09;;;;;;;;;;;;;;;5.53;96.54;102088.44;4976837;28;19985;-86
2023/03/27 04:17:39;;;;;;;;;;;;;;;5.50;96.79;102099.38;4976412;29;19910;-86
2023/03/27 04:20:11;;;;;;;;;;;;;;;5.47;96.91;102094.00;4967514;29;19946;-86
2023/03/27 04:22:45;;;;;;;;;;;;;;;5.44;97.16;102098.94;4984154;28;19916;-88
2023/03/27 04:25:16;;;;;;;;;;;;;;;5.41;96.68;102102.19;4980241;28;19916;-86
2023/03/27 04:27:50;;;;;;;;;;;;;;;5.37;97.24;102101.84;4987815;28;19922;-87
2023/03/27 04:30:21;;;;;;;;;;;;;;;5.23;97.17;102078.66;4985121;28;19910;-85
2023/03/27 04:32:53;;;;;;;;;;;;;;;5.30;97.71;102094.50;4984465;28;19910;-86
2023/03/27 04:35:22;;;;;;;;;;;;;;;5.24;97.92;102095.84;4974300;28;19922;-86
2023/03/27 04:38:00;;;;;;;;;;;;;;;5.21;98.34;102098.16;4975546;28;19907;-86
2023/03/27 04:40:29;;;;;;;;;;;;;;;5.19;98.08;102099.72;4975486;28;19906;-86
2023/03/27 04:42:57;;;;;;;;;;;;;;;5.15;97.68;102099.41;4987672;28;19981;-87
2023/03/27 04:45:26;;;;;;;;;;;;;;;5.11;98.16;102095.72;4995934;28;19973;-85
2023/03/27 04:48:04;;;;;;;;;;;;;;;5.08;99.11;102092.03;4993612;28;19980;-85
2023/03/27 04:50:32;;;;;;;;;;;;;;;5.06;98.17;102097.03;4982649;28;19917;-84
2023/03/27 04:53:00;;;;;;;;;;;;;;;5.00;97.66;102099.19;4986021;28;19922;-85
2023/03/27 04:55:36;;;;;;;;;;;;;;;4.96;98.38;102092.03;4988862;28;19922;-84
2023/03/27 04:58:07;;;;;;;;;;;;;;;4.94;98.76;102096.16;4988354;28;19932;-84
2023/03/27 05:00:35;;;;;;;;;;;;;;;4.92;99.30;102100.28;4983246;28;19922;-85
2023/03/27 05:03:05;;;;;;;;;;;;;;;4.86;98.88;102099.84;4983612;28;19922;-85
2023/03/27 05:05:33;;;;;;;;;;;;;;;4.80;98.51;102096.03;4986025;28;19929;-85
2023/03/27 05:08:01;;;;;;;;;;;;;;;4.77;99.48;102089.78;4985668;28;19922;-85
2023/03/27 05:10:29;;;;;;;;;;;;;;;4.76;99.69;102093.13;4984990;28;19926;-85
2023/03/27 05:12:57;;;;;;;;;;;;;;;4.73;99.18;102091.22;4991066;28;19926;-85
2023/03/27 05:15:26;;;;;;;;;;;;;;;4.71;98.42;102092.78;4983519;28;19921;-84
2023/03/27 05:17:54;;;;;;;;;;;;;;;4.68;98.23;102095.13;4982500;28;20493;-83
2023/03/27 05:20:24;;;;;;;;;;;;;;;4.63;98.59;102096.44;4979504;28;19925;-83
2023/03/27 05:22:53;;;;;;;;;;;;;;;4.59;98.50;102105.56;4976382;28;19930;-84
2023/03/27 05:25:22;;;;;;;;;;;;;;;4.56;99.01;102094.22;4976856;28;20005;-84
2023/03/27 05:27:50;;;;;;;;;;;;;;;4.55;98.09;102094.97;4975598;28;19969;-83
2023/03/27 05:30:19;;;;;;;;;;;;;;;4.53;97.95;102093.97;4980291;28;20287;-85
2023/03/27 05:32:48;;;;;;;;;;;;;;;4.50;98.53;102094.63;4980696;28;19926;-84
2023/03/27 05:35:17;;;;;;;;;;;;;;;4.47;98.15;102091.84;4978647;28;20021;-83
2023/03/27 05:37:48;;;;;;;;;;;;;;;4.44;97.94;102094.16;4981654;28;19922;-84
2023/03/27 05:40:16;;;;;;;;;;;;;;;4.41;97.51;102096.50;4979180;28;20017;-85
2023/03/27 05:42:45;;;;;;;;;;;;;;;4.38;98.64;102091.16;4978203;28;19926;-84
2023/03/27 05:45:13;;;;;;;;;;;;;;;4.36;98.49;102093.59;4976397;28;20029;-84
2023/03/27 05:47:45;;;;;;;;;;;;;;;4.31;97.24;102087.22;4974662;28;20408;-84
2023/03/27 05:50:19;;;;;;;;;;;;;;;4.28;98.40;102086.09;4978065;28;19945;-84
2023/03/27 05:52:48;;;;;;;;;;;;;;;4.23;99.01;102077.16;4979088;28;20732;-85
2023/03/27 05:55:16;;;;;;;;;;;;;;;4.18;99.52;102074.25;4979557;28;19922;-84
2023/03/27 05:57:44;;;;;;;;;;;;;;;4.21;99.81;102082.16;4977014;28;19929;-84
2023/03/27 06:00:15;;;;;;;;;;;;;;;4.20;99.67;102088.06;4981356;28;19922;-85
2023/03/27 06:02:44;;;;;;;;;;;;;;;4.18;99.57;102081.94;4980186;28;19923;-84
2023/03/27 06:05:13;;;;;;;;;;;;;;;4.15;99.09;102081.72;4979161;28;20003;-84
2023/03/27 06:07:41;;;;;;;;;;;;;;;4.11;99.87;102079.69;4977531;28;19949;-86
2023/03/27 06:10:12;;;;;;;;;;;;;;;4.07;99.40;102072.53;4979910;28;19981;-84
2023/03/27 06:12:41;;;;;;;;;;;;;;;4.05;99.55;102077.53;4982179;28;19948;-84
2023/03/27 06:15:13;;;;;;;;;;;;;;;4.04;99.14;102075.75;4973600;28;19922;-84
2023/03/27 06:17:41;;;;;;;;;;;;;;;3.98;99.31;102083.84;4977653;28;19958;-84
2023/03/27 06:20:11;;;;;;;;;;;;;;;3.94;100.00;102078.38;4978251;28;20253;-83
2023/03/27 06:22:40;;;;;;;;;;;;;;;3.93;100.00;102074.91;4976591;28;19922;-83
2023/03/27 06:25:09;;;;;;;;;;;;;;;3.93;100.00;102066.34;4977767;28;19921;-84
2023/03/27 06:27:38;;;;;;;;;;;;;;;3.91;100.00;102076.47;4978833;28;20033;-84
2023/03/27 06:30:08;;;;;;;;;;;;;;;3.88;99.83;102073.69;4983650;28;19937;-84
2023/03/27 06:32:36;;;;;;;;;;;;;;;3.88;99.68;102076.25;4978348;28;20410;-84
2023/03/27 06:35:04;;;;;;;;;;;;;;;3.86;99.12;102080.34;4975488;28;19965;-83
2023/03/27 06:37:35;;;;;;;;;;;;;;;3.80;99.24;102077.31;4978060;28;20431;-84
2023/03/27 06:40:08;;;;;;;;;;;;;;;3.78;99.69;102074.66;4973301;28;19981;-83
2023/03/27 06:42:36;;;;;;;;;;;;;;;3.76;98.90;102078.75;4978523;28;19927;-84
2023/03/27 06:45:09;;;;;;;;;;;;;;;3.75;99.14;102073.50;4972986;28;19921;-84
2023/03/27 06:47:37;;;;;;;;;;;;;;;3.74;100.00;102074.28;4973347;28;20296;-83
2023/03/27 06:50:08;;;;;;;;;;;;;;;3.71;99.22;102072.38;4974290;28;20360;-84
2023/03/27 06:52:37;;;;;;;;;;;;;;;3.68;98.66;102067.00;4972557;28;19968;-85
2023/03/27 06:55:06;;;;;;;;;;;;;;;3.69;98.97;102073.03;4973257;28;19922;-84
2023/03/27 06:57:34;;;;;;;;;;;;;;;3.66;98.88;102075.34;4976846;28;19922;-84
2023/03/27 07:00:09;;;;;;;;;;;;;;;3.65;99.32;102078.69;4969056;28;19926;-84
2023/03/27 07:02:40;;;;;;;;;;;;;;;3.61;99.56;102082.66;4975797;28;19978;-84
2023/03/27 07:05:09;;;;;;;;;;;;;;;3.60;99.74;102077.41;4967649;28;20376;-84
2023/03/27 07:07:37;;;;;;;;;;;;;;;3.59;99.64;102078.19;4964502;28;19926;-83
2023/03/27 07:10:05;;;;;;;;;;;;;;;3.53;98.84;102074.38;4970487;28;19929;-84
2023/03/27 07:12:33;;;;;;;;;;;;;;;3.50;100.00;102081.78;4972458;28;20158;-84
2023/03/27 07:15:04;;;;;;;;;;;;;;;3.48;99.71;102079.91;4969582;28;20012;-84
2023/03/27 07:17:31;;;;;;;;;;;;;;;3.46;99.74;102072.13;4972417;28;19922;-85
2023/03/27 07:20:01;;;;;;;;;;;;;;;3.45;100.00;102072.88;4973009;28;19922;-82
2023/03/27 07:22:29;;;;;;;;;;;;;;;3.44;100.00;102070.22;4972868;28;20368;-83
2023/03/27 07:24:57;;;;;;;;;;;;;;;3.43;100.00;102066.72;4976094;28;19922;-83
2023/03/27 07:27:25;;;;;;;;;;;;;;;3.41;100.00;102068.28;4970745;28;19926;-84
2023/03/27 07:29:54;;;;;;;;;;;;;;;3.40;100.00;102071.63;4974372;28;20829;-84
2023/03/27 07:32:22;;;;;;;;;;;;;;;3.39;100.00;102063.81;4971479;28;19933;-84
2023/03/27 07:34:50;;;;;;;;;;;;;;;3.37;100.00;102063.72;4974538;28;19987;-84
2023/03/27 07:37:23;;;;;;;;;;;;;;;3.37;100.00;102061.16;4973626;28;19937;-84
2023/03/27 07:39:51;;;;;;;;;;;;;;;3.30;99.78;102066.56;4967616;28;19930;-84
2023/03/27 07:42:20;;;;;;;;;;;;;;;3.29;99.14;102062.19;4973344;28;19946;-83
2023/03/27 07:44:48;;;;;;;;;;;;;;;3.26;99.89;102062.84;4969139;28;19935;-84
2023/03/27 07:47:16;;;;;;;;;;;;;;;3.24;99.51;102054.16;4965958;28;19931;-84
2023/03/27 07:49:44;;;;;;;;;;;;;;;3.21;98.84;102046.25;4970681;28;19933;-84
2023/03/27 07:52:14;;;;;;;;;;;;;;;3.17;99.84;102051.00;4973589;28;19930;-84
2023/03/27 07:54:44;;;;;;;;;;;;;;;3.13;99.71;102045.63;4972493;28;19969;-84
2023/03/27 07:57:14;;;;;;;;;;;;;;;3.12;99.64;102048.06;4976837;28;19929;-82
2023/03/27 07:59:44;;;;;;;;;;;;;;;3.09;100.00;102048.72;4973761;28;19930;-83
2023/03/27 08:02:12;;;;;;;;;;;;;;;3.02;99.92;102036.19;4977348;28;19928;-84
2023/03/27 08:04:40;;;;;;;;;;;;;;;2.95;100.00;102021.13;4969706;28;19923;-84
2023/03/27 08:07:08;;;;;;;;;;;;;;;3.03;100.00;102042.22;4974562;28;19929;-84
2023/03/27 08:09:37;;;;;;;;;;;;;;;3.00;100.00;102032.66;4972606;28;20091;-84
2023/03/27 08:12:07;;;;;;;;;;;;;;;3.00;99.82;102037.75;4974926;28;19930;-84
2023/03/27 08:14:35;;;;;;;;;;;;;;;2.96;98.69;102038.28;4967918;28;19933;-84
2023/03/27 08:17:03;;;;;;;;;;;;;;;2.93;99.49;102031.25;4978335;28;19922;-84
2023/03/27 08:19:32;;;;;;;;;;;;;;;2.92;99.20;102034.56;4971490;28;19922;-84
2023/03/27 08:22:00;;;;;;;;;;;;;;;2.89;99.25;102033.44;4977253;28;19926;-84
2023/03/27 08:24:28;;;;;;;;;;;;;;;2.86;100.00;102028.97;4972361;28;19921;-83
2023/03/27 08:26:56;;;;;;;;;;;;;;;2.84;99.70;102030.50;4975012;28;19940;-83
2023/03/27 08:29:26;;;;;;;;;;;;;;;2.84;100.00;102027.03;4971801;28;19973;-83
2023/03/27 08:31:54;;;;;;;;;;;;;;;2.83;100.00;102027.81;4972101;28;19932;-84
2023/03/27 08:34:22;;;;;;;;;;;;;;;2.80;99.83;102027.59;4975004;28;19922;-83
2023/03/27 08:36:51;;;;;;;;;;;;;;;2.79;100.00;102024.13;4974979;28;19922;-84
2023/03/27 08:39:21;;;;;;;;;;;;;;;2.77;100.00;102023.09;4974295;28;19933;-84
2023/03/27 08:41:53;;;;;;;;;;;;;;;2.76;100.00;102020.44;4973328;28;19940;-84
2023/03/27 08:44:23;;;;;;;;;;;;;;;2.75;100.00;102019.53;4974906;28;19929;-84
2023/03/27 08:46:55;;;;;;;;;;;;;;;2.73;100.00;102021.97;4976923;28;19977;-84
2023/03/27 08:49:24;;;;;;;;;;;;;;;2.72;99.73;102009.94;4979592;28;19926;-84
2023/03/27 08:51:54;;;;;;;;;;;;;;;2.72;100.00;102015.06;4977509;28;19976;-84
2023/03/27 08:54:23;;;;;;;;;;;;;;;2.72;100.00;102014.16;4974992;28;19923;-83
2023/03/27 08:56:52;;;;;;;;;;;;;;;2.70;100.00;102011.50;4974654;28;19925;-85
2023/03/27 08:59:21;;;;;;;;;;;;;;;2.69;100.00;102009.69;4973865;28;19925;-84
2023/03/27 09:01:53;;;;;;;;;;;;;;;2.61;99.90;101997.06;4979501;28;20494;-84
2023/03/27 09:04:30;;;;;;;;;;;;;;;2.65;99.57;102001.66;4974548;28;19977;-84
2023/03/27 09:07:02;;;;;;;;;;;;;;;2.61;100.00;102000.53;4973640;28;19926;-83
2023/03/27 09:09:41;;;;;;;;;;;;;;;2.61;100.00;102005.66;4972716;28;19952;-83
2023/03/27 09:12:16;;;;;;;;;;;;;;;2.60;100.00;102000.41;4969490;28;19929;-83
2023/03/27 09:14:47;;;;;;;;;;;;;;;2.60;100.00;101996.19;4969179;28;19926;-84
2023/03/27 09:17:18;;;;;;;;;;;;;;;2.60;100.00;101998.72;4977262;28;19929;-84
2023/03/27 09:19:50;;;;;;;;;;;;;;;2.61;100.00;101995.44;4969616;28;19929;-84
2023/03/27 09:22:22;;;;;;;;;;;;;;;2.60;100.00;101988.50;4969722;28;20066;-83
2023/03/27 09:24:53;;;;;;;;;;;;;;;2.59;100.00;101980.72;4972185;28;20293;-84
2023/03/27 09:27:23;;;;;;;;;;;;;;;2.57;100.00;101980.59;4965560;28;19929;-85
2023/03/27 09:29:56;;;;;;;;;;;;;;;2.54;100.00;101977.78;4965893;28;19922;-84
2023/03/27 09:32:29;;;;;;;;;;;;;;;2.50;100.00;101975.78;4966568;28;20008;-85
2023/03/27 09:34:58;;;;;;;;;;;;;;;2.50;100.00;101970.66;4962931;28;19922;-85
2023/03/27 09:37:28;;;;;;;;;;;;;;;2.49;100.00;101968.84;4964276;28;19930;-85
2023/03/27 09:40:00;;;;;;;;;;;;;;;2.49;100.00;101969.75;4962860;28;19961;-85
2023/03/27 09:42:31;;;;;;;;;;;;;;;2.49;100.00;101964.63;4963859;28;20033;-85
2023/03/27 09:45:02;;;;;;;;;;;;;;;2.50;100.00;101965.56;4966398;28;19984;-83
2023/03/27 09:47:34;;;;;;;;;;;;;;;2.44;100.00;101957.38;4965486;28;20010;-84
2023/03/27 09:50:14;;;;;;;;;;;;;;;2.48;100.00;101956.88;4969149;28;19984;-84
2023/03/27 09:52:42;;;;;;;;;;;;;;;2.47;100.00;101949.94;4964211;28;19969;-84
2023/03/27 09:55:23;;;;;;;;;;;;;;;2.47;100.00;101948.31;4967695;28;20407;-84
2023/03/27 09:57:58;;;;;;;;;;;;;;;2.47;100.00;101955.06;4967704;28;19936;-84
2023/03/27 10:00:28;;;;;;;;;;;;;;;2.46;100.00;101953.28;4968576;28;19973;-84
2023/03/27 10:03:04;;;;;;;;;;;;;;;2.44;100.00;101950.59;4969390;28;19928;-84
2023/03/27 10:05:34;;;;;;;;;;;;;;;2.42;100.00;101957.25;4972156;28;19965;-84
2023/03/27 10:08:02;;;;;;;;;;;;;;;2.44;100.00;101954.81;4965165;28;19930;-84
2023/03/27 10:10:33;;;;;;;;;;;;;;;2.48;100.00;101949.19;4966719;28;19925;-84
2023/03/27 10:13:02;;;;;;;;;;;;;;;2.54;100.00;101942.00;4967548;28;19942;-84
2023/03/27 10:15:34;;;;;;;;;;;;;;;2.61;100.00;101949.44;4969715;28;19937;-85
2023/03/27 10:18:03;;;;;;;;;;;;;;;2.65;100.00;101946.31;4966998;28;19973;-84
2023/03/27 10:20:32;;;;;;;;;;;;;;;2.64;100.00;101942.00;4968554;28;19978;-85
2023/03/27 10:23:03;;;;;;;;;;;;;;;2.63;100.00;101945.31;4970897;28;19977;-84
2023/03/27 10:25:33;;;;;;;;;;;;;;;2.60;100.00;101947.63;4976123;28;19930;-84
2023/03/27 10:28:18;;;;;;;;;;;;;;;2.56;100.00;101937.94;4980393;28;19930;-84
2023/03/27 10:30:57;;;;;;;;;;;;;;;2.55;100.00;101937.81;4984658;28;19926;-85
2023/03/27 10:33:34;;;;;;;;;;;;;;;2.53;100.00;101936.81;4980603;28;19929;-85
2023/03/27 10:36:02;;;;;;;;;;;;;;;2.50;100.00;101940.00;4987385;28;20557;-85
2023/03/27 10:38:36;;;;;;;;;;;;;;;2.47;100.00;101937.19;4986757;28;19922;-83
2023/03/27 10:41:17;;;;;;;;;;;;;;;2.48;100.00;101932.22;4992027;28;19942;-85
2023/03/27 10:43:47;;;;;;;;;;;;;;;2.47;100.00;101925.31;4989536;28;20352;-85
2023/03/27 10:46:16;;;;;;;;;;;;;;;2.43;100.00;101919.84;4986595;28;19946;-85
2023/03/27 10:48:51;;;;;;;;;;;;;;;2.44;100.00;101919.94;4984571;28;19922;-85
2023/03/27 10:51:26;;;;;;;;;;;;;;;2.42;100.00;101920.59;4989676;28;19990;-84
2023/03/27 10:53:57;;;;;;;;;;;;;;;2.40;100.00;101917.03;4989252;28;19926;-84
2023/03/27 10:56:27;;;;;;;;;;;;;;;2.39;100.00;101916.13;4991863;28;19925;-85
2023/03/27 10:58:58;;;;;;;;;;;;;;;2.38;100.00;101916.88;4993573;28;19963;-86
2023/03/27 11:01:26;;;;;;;;;;;;;;;2.37;100.00;101911.69;4988105;28;19922;-83
2023/03/27 11:03:58;;;;;;;;;;;;;;;2.37;100.00;101916.78;4989295;28;19926;-84
2023/03/27 11:06:35;;;;;;;;;;;;;;;2.36;100.00;101909.88;4991584;28;20024;-86
2023/03/27 11:09:08;;;;;;;;;;;;;;;2.25;100.00;101894.59;4988818;28;20053;-85
2023/03/27 11:11:38;;;;;;;;;;;;;;;2.33;100.00;101907.97;4985423;28;19931;-85
2023/03/27 11:14:10;;;;;;;;;;;;;;;2.30;100.00;101900.97;4984003;28;19925;-86
2023/03/27 11:16:47;;;;;;;;;;;;;;;2.30;100.00;101895.84;4989185;28;19945;-85
2023/03/27 11:19:27;;;;;;;;;;;;;;;2.28;100.00;101892.28;4986786;28;19922;-86
2023/03/27 11:21:56;;;;;;;;;;;;;;;2.27;100.00;101890.50;4979851;28;19921;-86
2023/03/27 11:24:33;;;;;;;;;;;;;;;2.24;100.00;101889.34;4979085;28;19922;-85
2023/03/27 11:27:03;;;;;;;;;;;;;;;2.21;100.00;101889.09;4979154;28;19987;-85
2023/03/27 11:29:34;;;;;;;;;;;;;;;2.17;100.00;101887.94;4977591;28;19929;-85
2023/03/27 11:32:06;;;;;;;;;;;;;;;2.14;100.00;101887.72;4983037;28;19938;-85
2023/03/27 11:34:51;;;;;;;;;;;;;;;2.12;100.00;101884.16;4977895;28;19933;-85
2023/03/27 11:37:22;;;;;;;;;;;;;;;2.09;100.00;101876.25;4977473;28;19954;-85
2023/03/27 11:39:53;;;;;;;;;;;;;;;2.09;100.00;101881.34;4978197;28;19976;-84
2023/03/27 11:42:23;;;;;;;;;;;;;;;2.06;100.00;101876.88;4979701;28;20355;-85
2023/03/27 11:44:51;;;;;;;;;;;;;;;2.01;100.00;101859.41;4975788;28;20369;-85
2023/03/27 11:47:35;;;;;;;;;;;;;;;2.04;100.00;101859.66;4965441;28;20350;-86
2023/03/27 11:50:16;;;;;;;;;;;;;;;2.04;100.00;101863.09;4965868;28;19933;-86
2023/03/27 11:52:48;;;;;;;;;;;;;;;2.04;100.00;101857.13;4966347;28;19926;-86
2023/03/27 11:55:25;;;;;;;;;;;;;;;2.06;100.00;101850.44;4982344;28;19980;-87
2023/03/27 11:58:05;;;;;;;;;;;;;;;2.08;100.00;101847.28;4984605;28;19928;-86
2023/03/27 12:00:46;;;;;;;;;;;;;;;2.11;100.00;101846.63;4985863;28;19922;-85
2023/03/27 12:03:27;;;;;;;;;;;;;;;2.14;100.00;101836.66;4992917;28;19918;-86
2023/03/27 12:06:02;;;;;;;;;;;;;;;2.17;100.00;101826.69;4985789;28;19946;-85
2023/03/27 12:08:36;;;;;;;;;;;;;;;2.19;100.00;101820.03;4977031;28;19989;-88
2023/03/27 12:11:07;;;;;;;;;;;;;;;2.21;100.00;101817.63;4972783;28;19932;-87
2023/03/27 12:13:47;;;;;;;;;;;;;;;2.22;100.00;101815.19;4982211;28;19922;-86
2023/03/27 12:16:29;;;;;;;;;;;;;;;2.22;100.00;101810.09;4978581;28;19930;-86
2023/03/27 12:19:02;;;;;;;;;;;;;;;2.20;100.00;101806.50;4977893;28;19953;-86
2023/03/27 12:21:34;;;;;;;;;;;;;;;2.17;100.00;101807.91;4983138;28;20742;-86
2023/03/27 12:24:16;;;;;;;;;;;;;;;2.16;100.00;101801.03;4983242;28;19995;-85
2023/03/27 12:27:05;;;;;;;;;;;;;;;2.16;100.00;101803.59;4980863;28;19943;-85
2023/03/27 12:29:43;;;;;;;;;;;;;;;2.18;100.00;101796.94;4965819;28;19938;-85
2023/03/27 12:32:22;;;;;;;;;;;;;;;2.19;100.00;101799.59;4975937;28;19977;-85
2023/03/27 12:34:53;;;;;;;;;;;;;;;2.22;100.00;101793.84;4972839;28;19933;-85
2023/03/27 12:37:24;;;;;;;;;;;;;;;2.24;100.00;101787.19;4973765;28;19926;-86
2023/03/27 12:39:53;;;;;;;;;;;;;;;2.25;100.00;101784.78;4986083;28;19925;-83
2023/03/27 12:42:42;;;;;;;;;;;;;;;2.20;100.00;101780.97;4977801;28;19964;-84
2023/03/27 12:45:18;;;;;;;;;;;;;;;2.22;100.00;101783.63;4965158;28;19930;-86
2023/03/27 12:48:05;;;;;;;;;;;;;;;2.21;100.00;101777.63;4971043;28;19911;-86
2023/03/27 12:50:37;;;;;;;;;;;;;;;2.23;100.00;101781.22;4975858;28;19930;-85
2023/03/27 12:53:05;;;;;;;;;;;;;;;2.26;100.00;101783.09;4972630;28;19923;-86
2023/03/27 12:55:34;;;;;;;;;;;;;;;2.27;100.00;101778.13;4971679;28;19981;-85
2023/03/27 12:58:03;;;;;;;;;;;;;;;2.29;100.00;101771.50;4973830;28;19926;-84
2023/03/27 13:00:33;;;;;;;;;;;;;;;2.32;100.00;101780.16;4974945;28;20176;-85
2023/03/27 13:03:24;;;;;;;;;;;;;;;2.35;100.00;101775.28;4970485;28;19918;-86
2023/03/27 13:06:06;;;;;;;;;;;;;;;2.37;100.00;101771.19;4971510;28;20436;-85